createdAt,value
2023-05-25T00:00:49.746Z,15.04
2023-05-25T00:04:05.333Z,15.04
2023-05-25T00:07:07.386Z,15.02
2023-05-25T00:10:09.497Z,14.96
2023-05-25T00:13:11.502Z,14.95
2023-05-25T00:16:13.434Z,14.93
2023-05-25T00:19:15.726Z,14.93
2023-05-25T00:22:17.793Z,14.89
2023-05-25T00:25:21.054Z,14.87
2023-05-25T00:28:23.163Z,14.87
2023-05-25T00:31:26.331Z,14.88
2023-05-25T00:34:28.404Z,14.88
2023-05-25T00:37:30.505Z,14.83
2023-05-25T00:40:33.563Z,14.79
2023-05-25T00:43:35.581Z,14.77
2023-05-25T00:46:47.197Z,14.74
2023-05-25T00:49:50.610Z,14.71
2023-05-25T00:52:52.612Z,14.68
2023-05-25T00:56:14.024Z,14.68
2023-05-25T00:59:20.553Z,14.70
2023-05-25T01:02:26.247Z,14.70
2023-05-25T01:05:30.497Z,14.72
2023-05-25T01:08:34.760Z,14.75
2023-05-25T01:11:39.021Z,14.76
2023-05-25T01:14:42.131Z,14.78
2023-05-25T01:17:45.930Z,14.80
2023-05-25T01:21:14.812Z,14.76
2023-05-25T01:24:28.002Z,14.80
2023-05-25T01:27:40.224Z,14.81
2023-05-25T01:30:46.201Z,14.77
2023-05-25T01:33:51.871Z,14.80
2023-05-25T01:36:54.026Z,14.74
2023-05-25T01:39:56.086Z,14.75
2023-05-25T01:42:58.096Z,14.71
2023-05-25T01:46:12.258Z,14.75
2023-05-25T01:49:26.861Z,14.74
2023-05-25T01:52:45.551Z,14.75
2023-05-25T01:55:58.774Z,14.67
2023-05-25T01:59:02.655Z,14.58
2023-05-25T02:02:05.888Z,14.54
2023-05-25T02:05:09.413Z,14.43
2023-05-25T02:08:11.400Z,14.35
2023-05-25T02:11:14.819Z,14.31
2023-05-25T02:14:17.485Z,14.22
2023-05-25T02:17:19.821Z,14.15
2023-05-25T02:20:21.897Z,14.12
2023-05-25T02:23:23.918Z,14.02
2023-05-25T02:26:26.475Z,13.99
2023-05-25T02:29:28.489Z,13.97
2023-05-25T02:32:31.573Z,13.90
2023-05-25T02:35:33.641Z,13.85
2023-05-25T02:38:35.615Z,13.85
2023-05-25T02:41:38.747Z,13.79
2023-05-25T02:44:40.713Z,13.75
2023-05-25T02:47:42.927Z,13.71
2023-05-25T02:50:44.945Z,13.64
2023-05-25T02:53:46.892Z,13.60
2023-05-25T02:56:48.895Z,13.54
2023-05-25T02:59:51.236Z,13.52
2023-05-25T03:02:53.212Z,13.54
2023-05-25T03:05:57.250Z,13.49
2023-05-25T03:08:59.279Z,13.41
2023-05-25T03:12:01.632Z,13.44
2023-05-25T03:15:04.544Z,13.39
2023-05-25T03:18:07.319Z,13.39
2023-05-25T03:21:09.204Z,13.41
2023-05-25T03:24:11.128Z,13.39
2023-05-25T03:27:13.110Z,13.38
2023-05-25T03:30:15.166Z,13.29
2023-05-25T03:33:16.999Z,13.27
2023-05-25T03:36:18.970Z,13.23
2023-05-25T03:39:22.294Z,13.19
2023-05-25T03:42:24.167Z,13.19
2023-05-25T03:45:26.023Z,13.16
2023-05-25T03:48:28.001Z,13.14
2023-05-25T03:51:30.007Z,13.12
2023-05-25T03:54:32.536Z,13.11
2023-05-25T03:57:34.444Z,13.08
2023-05-25T04:00:36.965Z,13.06
2023-05-25T04:03:39.176Z,13.04
2023-05-25T04:06:42.881Z,13.04
2023-05-25T04:09:44.844Z,13.03
2023-05-25T04:12:46.877Z,13.04
2023-05-25T04:15:50.514Z,13.11
2023-05-25T04:18:52.496Z,13.16
2023-05-25T04:21:54.754Z,13.18
2023-05-25T04:24:56.696Z,13.12
2023-05-25T04:27:58.684Z,13.21
2023-05-25T04:31:00.617Z,13.17
2023-05-25T04:34:02.830Z,13.19
2023-05-25T04:37:05.812Z,13.21
2023-05-25T04:40:14.287Z,13.25
2023-05-25T04:43:18.342Z,13.25
2023-05-25T04:46:20.893Z,13.29
2023-05-25T04:49:23.002Z,13.36
2023-05-25T04:52:24.973Z,13.41
2023-05-25T04:55:27.032Z,13.51
2023-05-25T04:58:33.553Z,13.61
2023-05-25T05:01:41.048Z,13.68
2023-05-25T05:04:43.243Z,13.73
2023-05-25T05:07:45.226Z,13.84
2023-05-25T05:10:47.293Z,13.88
2023-05-25T05:13:49.627Z,14.02
2023-05-25T05:16:51.792Z,14.06
2023-05-25T05:19:54.027Z,14.15
2023-05-25T05:22:56.037Z,14.23
2023-05-25T05:25:58.073Z,14.34
2023-05-25T05:29:00.125Z,14.37
2023-05-25T05:32:02.088Z,14.37
2023-05-25T05:35:04.323Z,14.49
2023-05-25T05:38:06.372Z,14.60
2023-05-25T05:41:14.265Z,14.59
2023-05-25T05:44:16.366Z,14.65
2023-05-25T05:47:18.433Z,14.88
2023-05-25T05:50:20.747Z,14.85
2023-05-25T05:53:22.708Z,14.93
2023-05-25T05:56:24.713Z,14.88
2023-05-25T05:59:26.734Z,15.03
2023-05-25T06:02:28.751Z,15.17
2023-05-25T06:05:30.824Z,15.10
2023-05-25T06:08:32.761Z,15.37
2023-05-25T06:11:37.682Z,15.87
2023-05-25T06:14:40.119Z,16.14
2023-05-25T06:17:43.363Z,16.61
2023-05-25T06:20:45.481Z,16.88
2023-05-25T06:23:48.470Z,17.15
2023-05-25T06:26:50.675Z,17.17
2023-05-25T06:29:52.642Z,17.86
2023-05-25T06:32:54.742Z,17.82
2023-05-25T06:36:00.502Z,18.17
2023-05-25T06:39:02.572Z,18.20
2023-05-25T06:42:04.778Z,18.79
2023-05-25T06:45:08.023Z,18.88
2023-05-25T06:48:10.237Z,19.11
2023-05-25T06:51:12.334Z,19.12
2023-05-25T06:54:15.462Z,19.47
2023-05-25T06:57:17.567Z,19.64
2023-05-25T07:00:19.984Z,19.73
2023-05-25T07:03:22.097Z,19.42
2023-05-25T07:06:24.147Z,19.68
2023-05-25T07:09:26.141Z,19.78
2023-05-25T07:12:28.279Z,19.98
2023-05-25T07:15:30.460Z,20.09
2023-05-25T07:18:32.440Z,19.96
2023-05-25T07:21:34.498Z,20.74
2023-05-25T07:24:37.055Z,21.46
2023-05-25T07:27:40.146Z,21.88
2023-05-25T07:30:42.196Z,22.00
2023-05-25T07:33:44.284Z,21.42
2023-05-25T07:36:46.558Z,21.56
2023-05-25T07:39:48.648Z,21.80
2023-05-25T07:42:50.660Z,22.00
2023-05-25T07:45:52.645Z,21.86
2023-05-25T07:48:54.727Z,21.82
2023-05-25T07:51:56.946Z,21.88
2023-05-25T07:54:59.120Z,22.24
2023-05-25T07:58:01.378Z,22.55
2023-05-25T08:01:03.447Z,23.05
2023-05-25T08:04:05.768Z,23.50
2023-05-25T08:07:08.073Z,23.43
2023-05-25T08:10:10.177Z,23.08
2023-05-25T08:13:12.344Z,23.53
2023-05-25T08:19:16.369Z,23.52
2023-05-25T08:22:18.315Z,23.09
2023-05-25T08:25:20.813Z,23.20
2023-05-25T08:28:23.073Z,22.38
2023-05-25T08:31:25.049Z,23.25
2023-05-25T08:34:27.305Z,23.73
2023-05-25T08:37:29.496Z,24.36
2023-05-25T08:40:31.535Z,23.57
2023-05-25T08:43:34.568Z,22.92
2023-05-25T08:46:39.921Z,22.95
2023-05-25T08:49:44.676Z,23.68
2023-05-25T08:52:50.086Z,23.86
2023-05-25T08:55:56.699Z,24.21
2023-05-25T08:59:07.054Z,24.39
2023-05-25T09:02:16.320Z,25.57
2023-05-25T09:05:19.309Z,24.41
2023-05-25T09:08:22.444Z,24.04
2023-05-25T09:11:38.775Z,23.30
2023-05-25T09:14:46.442Z,23.86
2023-05-25T09:17:48.539Z,23.83
2023-05-25T09:20:50.921Z,24.23
2023-05-25T09:23:53.453Z,25.87
2023-05-25T09:26:55.725Z,26.08
2023-05-25T09:30:01.242Z,26.27
2023-05-25T09:33:19.639Z,27.38
2023-05-25T09:36:23.400Z,25.45
2023-05-25T09:39:26.091Z,24.72
2023-05-25T09:42:28.090Z,25.88
2023-05-25T09:45:30.502Z,25.85
2023-05-25T09:48:32.445Z,25.44
2023-05-25T09:51:36.797Z,25.78
2023-05-25T09:54:39.416Z,26.47
2023-05-25T09:57:42.998Z,25.02
2023-05-25T10:00:46.459Z,25.90
2023-05-25T10:07:11.825Z,26.16
2023-05-25T10:10:16.153Z,26.36
2023-05-25T10:13:23.117Z,25.50
2023-05-25T10:16:29.871Z,26.81
2023-05-25T10:19:37.890Z,27.75
2023-05-25T10:23:06.048Z,26.61
2023-05-25T10:26:09.355Z,26.67
2023-05-25T10:29:11.647Z,26.49
2023-05-25T10:32:14.951Z,26.25
2023-05-25T10:35:18.065Z,25.74
2023-05-25T10:38:21.076Z,27.05
2023-05-25T10:41:23.220Z,27.90
2023-05-25T10:44:26.179Z,28.23
2023-05-25T10:47:28.579Z,28.61
2023-05-25T10:50:35.699Z,28.92
2023-05-25T10:53:37.881Z,29.39
2023-05-25T10:57:28.768Z,28.98
2023-05-25T11:00:34.170Z,29.00
2023-05-25T11:03:48.343Z,29.53
2023-05-25T11:07:05.917Z,29.35
2023-05-25T11:10:08.263Z,29.35
2023-05-25T11:13:43.903Z,27.93
2023-05-25T11:17:13.112Z,28.75
2023-05-25T11:20:23.962Z,29.09
2023-05-25T11:23:26.143Z,28.86
2023-05-25T11:26:33.310Z,27.56
2023-05-25T11:29:37.328Z,27.96
2023-05-25T11:32:50.665Z,27.28
2023-05-25T11:35:55.310Z,27.26
2023-05-25T11:42:05.291Z,27.88
2023-05-25T11:45:11.350Z,28.84
2023-05-25T11:48:14.628Z,29.70
2023-05-25T11:51:16.871Z,30.79
2023-05-25T11:54:23.387Z,30.60
2023-05-25T11:57:25.805Z,30.97
2023-05-25T12:00:28.811Z,30.68
2023-05-25T12:03:33.921Z,31.00
2023-05-25T12:06:39.060Z,30.26
2023-05-25T12:09:41.046Z,30.74
2023-05-25T12:12:52.605Z,30.79
2023-05-25T12:15:59.976Z,31.13
2023-05-25T12:19:02.786Z,31.94
2023-05-25T12:22:05.224Z,31.17
2023-05-25T12:25:11.968Z,30.95
2023-05-25T12:28:15.193Z,30.90
2023-05-25T12:31:23.733Z,30.99
2023-05-25T12:34:27.785Z,30.13
2023-05-25T12:37:30.061Z,30.37
2023-05-25T12:40:32.162Z,30.62
2023-05-25T12:43:43.290Z,31.52
2023-05-25T12:46:45.488Z,31.15
2023-05-25T12:49:51.436Z,30.85
2023-05-25T12:53:01.993Z,31.00
2023-05-25T12:56:04.408Z,30.87
2023-05-25T12:59:15.915Z,30.35
2023-05-25T13:02:17.956Z,30.60
2023-05-25T13:05:25.478Z,30.82
2023-05-25T13:08:27.684Z,31.28
2023-05-25T13:11:29.666Z,31.17
2023-05-25T13:14:31.703Z,31.01
2023-05-25T13:17:33.808Z,31.07
2023-05-25T13:20:36.950Z,30.55
2023-05-25T13:23:39.018Z,30.06
2023-05-25T13:26:41.030Z,30.75
2023-05-25T13:29:43.044Z,30.85
2023-05-25T13:32:45.098Z,29.99
2023-05-25T13:35:58.719Z,29.93
2023-05-25T13:39:01.826Z,29.52
2023-05-25T13:42:04.043Z,28.96
2023-05-25T13:45:25.934Z,27.63
2023-05-25T13:48:47.884Z,27.78
2023-05-25T13:52:09.822Z,27.85
2023-05-25T13:55:31.713Z,28.08
2023-05-25T13:58:37.427Z,27.86
2023-05-25T14:01:39.615Z,28.18
2023-05-25T14:04:41.663Z,27.79
2023-05-25T14:07:44.693Z,27.63
2023-05-25T14:10:46.756Z,28.18
2023-05-25T14:13:48.717Z,27.60
2023-05-25T14:16:50.657Z,27.59
2023-05-25T14:19:52.751Z,27.94
2023-05-25T14:22:55.301Z,28.38
2023-05-25T14:25:57.196Z,27.55
2023-05-25T14:28:59.206Z,27.49
2023-05-25T14:32:01.567Z,28.07
2023-05-25T14:35:04.035Z,28.75
2023-05-25T14:38:06.289Z,28.69
2023-05-25T14:41:08.270Z,29.09
2023-05-25T14:44:10.470Z,29.02
2023-05-25T14:47:13.994Z,28.67
2023-05-25T14:50:16.531Z,26.93
2023-05-25T14:53:18.780Z,26.89
2023-05-25T14:56:25.142Z,27.35
2023-05-25T14:59:27.098Z,27.99
2023-05-25T15:02:29.146Z,27.98
2023-05-25T15:05:31.186Z,27.00
2023-05-25T15:08:33.165Z,27.31
2023-05-25T15:11:35.185Z,27.15
2023-05-25T15:14:40.150Z,26.57
2023-05-25T15:17:42.287Z,26.34
2023-05-25T15:20:44.414Z,26.69
2023-05-25T15:23:46.807Z,26.49
2023-05-25T15:26:48.736Z,26.82
2023-05-25T15:29:50.808Z,26.94
2023-05-25T15:32:52.880Z,26.78
2023-05-25T15:35:54.945Z,27.07
2023-05-25T15:38:57.014Z,27.21
2023-05-25T15:41:59.041Z,26.43
2023-05-25T15:45:00.935Z,26.51
2023-05-25T15:48:04.146Z,26.00
2023-05-25T15:51:06.216Z,25.58
2023-05-25T15:54:11.083Z,25.68
2023-05-25T15:57:14.819Z,25.62
2023-05-25T16:00:17.571Z,25.02
2023-05-25T16:03:19.668Z,24.74
2023-05-25T16:06:21.667Z,25.01
2023-05-25T16:09:23.690Z,25.01
2023-05-25T16:12:28.888Z,24.78
2023-05-25T16:15:30.933Z,25.02
2023-05-25T16:18:32.890Z,24.89
2023-05-25T16:21:37.813Z,25.10
2023-05-25T16:24:39.824Z,24.95
2023-05-25T16:27:41.819Z,24.87
2023-05-25T16:30:43.818Z,24.64
2023-05-25T16:33:46.305Z,24.54
2023-05-25T16:36:48.501Z,24.40
2023-05-25T16:39:50.510Z,24.26
2023-05-25T16:42:52.832Z,24.10
2023-05-25T16:45:54.938Z,24.09
2023-05-25T16:48:57.073Z,24.13
2023-05-25T16:51:59.139Z,23.83
2023-05-25T16:55:01.107Z,23.57
2023-05-25T16:58:03.232Z,23.63
2023-05-25T17:01:05.387Z,23.62
2023-05-25T17:04:07.575Z,23.61
2023-05-25T17:07:09.638Z,23.41
2023-05-25T17:10:11.889Z,23.32
2023-05-25T17:13:14.264Z,23.33
2023-05-25T17:16:16.576Z,23.07
2023-05-25T17:19:18.560Z,23.13
2023-05-25T17:22:20.675Z,23.00
2023-05-25T17:25:23.064Z,22.88
2023-05-25T17:28:26.352Z,22.86
2023-05-25T17:31:28.651Z,22.85
2023-05-25T17:34:30.877Z,22.80
2023-05-25T17:37:33.504Z,22.68
2023-05-25T17:40:35.441Z,22.64
2023-05-25T17:43:37.612Z,22.57
2023-05-25T17:46:39.596Z,22.49
2023-05-25T17:49:41.874Z,22.41
2023-05-25T17:52:43.938Z,22.35
2023-05-25T17:55:46.250Z,22.26
2023-05-25T17:58:48.506Z,22.18
2023-05-25T18:01:51.040Z,22.09
2023-05-25T18:04:53.071Z,21.99
2023-05-25T18:07:55.018Z,21.91
2023-05-25T18:10:57.651Z,21.82
2023-05-25T18:14:00.522Z,21.71
2023-05-25T18:17:02.749Z,21.64
2023-05-25T18:20:05.279Z,21.58
2023-05-25T18:23:08.371Z,21.48
2023-05-25T18:26:10.399Z,21.38
2023-05-25T18:29:13.045Z,21.29
2023-05-25T18:32:15.043Z,21.21
2023-05-25T18:35:17.363Z,21.16
2023-05-25T18:38:19.372Z,21.03
2023-05-25T18:41:21.586Z,21.01
2023-05-25T18:44:23.696Z,20.84
2023-05-25T18:47:26.358Z,20.73
2023-05-25T18:50:28.422Z,20.65
2023-05-25T18:53:30.459Z,20.51
2023-05-25T18:56:32.455Z,20.52
2023-05-25T18:59:34.598Z,20.39
2023-05-25T19:02:37.149Z,20.34
2023-05-25T19:05:39.164Z,20.30
2023-05-25T19:08:41.141Z,20.19
2023-05-25T19:11:43.102Z,20.15
2023-05-25T19:14:45.082Z,20.14
2023-05-25T19:17:47.377Z,19.98
2023-05-25T19:20:49.586Z,19.92
2023-05-25T19:23:51.846Z,19.85
2023-05-25T19:26:53.841Z,19.77
2023-05-25T19:29:55.741Z,19.71
2023-05-25T19:32:57.991Z,19.59
2023-05-25T19:36:00.217Z,19.49
2023-05-25T19:39:02.388Z,19.39
2023-05-25T19:42:04.541Z,19.24
2023-05-25T19:45:06.891Z,19.13
2023-05-25T19:48:08.973Z,18.87
2023-05-25T19:51:11.057Z,18.83
2023-05-25T19:54:13.027Z,18.74
2023-05-25T19:57:15.028Z,18.59
2023-05-25T20:00:25.415Z,18.53
2023-05-25T20:03:28.969Z,18.45
2023-05-25T20:06:31.636Z,18.39
2023-05-25T20:09:35.211Z,18.30
2023-05-25T20:12:37.674Z,18.26
2023-05-25T20:15:39.836Z,18.20
2023-05-25T20:18:43.484Z,18.13
2023-05-25T20:21:45.473Z,18.09
2023-05-25T20:24:47.551Z,18.03
2023-05-25T20:27:49.550Z,17.96
2023-05-25T20:30:51.985Z,17.99
2023-05-25T20:33:53.946Z,17.96
2023-05-25T20:36:56.044Z,17.92
2023-05-25T20:39:57.982Z,17.85
2023-05-25T20:43:00.129Z,17.78
2023-05-25T20:46:02.161Z,17.75
2023-05-25T20:49:04.180Z,17.63
2023-05-25T20:52:06.386Z,17.57
2023-05-25T20:55:09.147Z,17.55
2023-05-25T20:58:11.459Z,17.53
2023-05-25T21:01:13.422Z,17.43
2023-05-25T21:04:15.540Z,17.35
2023-05-25T21:07:18.838Z,17.39
2023-05-25T21:10:20.902Z,17.34
2023-05-25T21:13:22.873Z,17.30
2023-05-25T21:16:25.080Z,17.26
2023-05-25T21:19:27.102Z,17.19
2023-05-25T21:22:29.103Z,17.20
2023-05-25T21:25:31.417Z,17.19
2023-05-25T21:28:33.442Z,17.17
2023-05-25T21:31:35.577Z,17.15
2023-05-25T21:34:37.563Z,17.11
2023-05-25T21:37:39.486Z,17.06
2023-05-25T21:40:41.527Z,17.02
2023-05-25T21:43:43.550Z,17.00
2023-05-25T21:46:45.758Z,16.96
2023-05-25T21:49:48.718Z,16.95
2023-05-25T21:52:51.190Z,16.94
2023-05-25T21:55:53.328Z,16.83
2023-05-25T21:58:55.421Z,16.80
2023-05-25T22:01:57.516Z,16.74
2023-05-25T22:04:59.664Z,16.74
2023-05-25T22:08:02.826Z,16.70
2023-05-25T22:11:04.975Z,16.63
2023-05-25T22:14:07.005Z,16.63
2023-05-25T22:17:09.429Z,16.63
2023-05-25T22:20:11.911Z,16.61
2023-05-25T22:23:14.057Z,16.58
2023-05-25T22:26:15.991Z,16.57
2023-05-25T22:29:18.129Z,16.54
2023-05-25T22:32:20.113Z,16.57
2023-05-25T22:35:22.030Z,16.61
2023-05-25T22:38:24.036Z,16.59
2023-05-25T22:41:26.668Z,16.58
2023-05-25T22:44:28.636Z,16.55
2023-05-25T22:47:30.536Z,16.44
2023-05-25T22:50:32.977Z,16.46
2023-05-25T22:53:34.989Z,16.37
2023-05-25T22:56:36.915Z,16.34
2023-05-25T22:59:38.917Z,16.27
2023-05-25T23:02:40.951Z,16.20
2023-05-25T23:05:43.031Z,16.12
2023-05-25T23:08:46.596Z,15.99
2023-05-25T23:11:48.561Z,15.97
2023-05-25T23:14:51.896Z,15.99
2023-05-25T23:17:53.879Z,15.94
2023-05-25T23:20:55.898Z,15.96
2023-05-25T23:23:57.848Z,15.90
2023-05-25T23:26:59.862Z,15.94
2023-05-25T23:30:03.184Z,15.92
2023-05-25T23:33:05.159Z,15.92
2023-05-25T23:36:07.289Z,15.94
2023-05-25T23:39:09.588Z,15.91
2023-05-25T23:42:15.454Z,15.94
2023-05-25T23:45:17.688Z,15.97
2023-05-25T23:48:19.690Z,15.97
2023-05-25T23:51:21.818Z,15.96
2023-05-25T23:54:23.827Z,15.99
2023-05-25T23:57:25.797Z,15.96
